createdAt,value
2018-12-02T00:01:46.840Z,122.73
2018-12-02T00:04:16.392Z,122.30
2018-12-02T00:06:46.354Z,132.93
2018-12-02T00:09:15.962Z,122.17
2018-12-02T00:11:45.899Z,108.53
2018-12-02T00:14:15.456Z,106.67
2018-12-02T00:16:45.184Z,106.73
2018-12-02T00:19:21.086Z,111.27
2018-12-02T00:21:50.406Z,106.23
2018-12-02T00:24:19.764Z,104.43
2018-12-02T00:26:49.627Z,102.40
2018-12-02T00:29:19.053Z,107.33
2018-12-02T00:31:48.586Z,109.07
2018-12-02T00:34:18.628Z,119.60
2018-12-02T00:36:48.109Z,115.47
2018-12-02T00:39:17.513Z,121.23
2018-12-02T00:41:47.124Z,116.77
2018-12-02T00:44:16.832Z,109.57
2018-12-02T00:46:46.663Z,109.20
2018-12-02T00:49:15.965Z,101.77
2018-12-02T00:51:45.328Z,94.93
2018-12-02T00:54:14.835Z,93.33
2018-12-02T00:56:44.622Z,93.63
2018-12-02T00:59:14.179Z,82.20
2018-12-02T01:01:43.725Z,85.20
2018-12-02T01:04:13.155Z,82.07
2018-12-02T01:06:42.590Z,69.80
2018-12-02T01:09:12.454Z,72.67
2018-12-02T01:11:42.201Z,76.00
2018-12-02T01:14:11.727Z,65.90
2018-12-02T01:16:40.999Z,71.13
2018-12-02T01:19:10.673Z,69.80
2018-12-02T01:21:40.047Z,75.13
2018-12-02T01:24:10.186Z,74.90
2018-12-02T01:26:39.765Z,70.00
2018-12-02T01:29:09.604Z,65.43
2018-12-02T01:31:39.124Z,82.47
2018-12-02T01:34:08.529Z,85.70
2018-12-02T01:36:38.672Z,79.17
2018-12-02T01:39:08.640Z,79.87
2018-12-02T01:41:38.492Z,79.57
2018-12-02T01:44:08.049Z,86.20
2018-12-02T01:46:37.546Z,98.87
2018-12-02T01:49:07.239Z,93.30
2018-12-02T01:51:36.528Z,81.93
2018-12-02T01:54:06.377Z,71.03
2018-12-02T01:56:36.304Z,58.73
2018-12-02T01:59:06.444Z,56.10
2018-12-02T02:01:36.026Z,55.40
2018-12-02T02:04:06.022Z,58.63
2018-12-02T02:06:35.833Z,47.47
2018-12-02T02:09:07.262Z,48.87
2018-12-02T02:11:37.320Z,45.07
2018-12-02T02:14:07.111Z,54.17
2018-12-02T02:16:36.513Z,52.27
2018-12-02T02:19:06.181Z,52.60
2018-12-02T02:21:35.621Z,51.83
2018-12-02T02:24:05.602Z,50.73
2018-12-02T02:26:34.949Z,47.57
2018-12-02T02:29:05.211Z,46.17
2018-12-02T02:31:34.878Z,47.00
2018-12-02T02:34:04.595Z,47.33
2018-12-02T02:36:34.020Z,47.77
2018-12-02T02:39:03.630Z,46.90
2018-12-02T02:41:33.274Z,48.83
2018-12-02T02:44:02.940Z,46.90
2018-12-02T02:46:32.225Z,44.60
2018-12-02T02:49:01.830Z,55.27
2018-12-02T02:51:31.082Z,103.20
2018-12-02T02:54:00.723Z,143.47
2018-12-02T02:56:30.530Z,121.97
2018-12-02T02:59:00.231Z,107.73
2018-12-02T03:01:32.943Z,108.90
2018-12-02T03:04:02.444Z,113.30
2018-12-02T03:06:32.079Z,112.53
2018-12-02T03:09:01.876Z,110.27
2018-12-02T03:11:31.300Z,100.47
2018-12-02T03:14:00.884Z,111.23
2018-12-02T03:16:30.264Z,103.80
2018-12-02T03:18:59.691Z,103.63
2018-12-02T03:21:28.951Z,111.97
2018-12-02T03:23:58.245Z,114.13
2018-12-02T03:26:27.830Z,117.67
2018-12-02T03:28:57.484Z,108.90
2018-12-02T03:31:26.947Z,113.10
2018-12-02T03:33:56.444Z,121.50
2018-12-02T03:36:26.336Z,115.17
2018-12-02T03:38:55.857Z,106.43
2018-12-02T03:41:25.474Z,103.97
2018-12-02T03:43:55.092Z,94.50
2018-12-02T03:46:24.456Z,90.07
2018-12-02T03:48:53.869Z,92.50
2018-12-02T03:51:23.984Z,90.20
2018-12-02T03:53:53.407Z,100.87
2018-12-02T03:56:23.094Z,119.30
2018-12-02T03:58:52.952Z,106.43
2018-12-02T04:01:22.728Z,124.80
2018-12-02T04:03:52.280Z,127.40
2018-12-02T04:06:22.073Z,163.83
2018-12-02T04:08:51.765Z,137.13
2018-12-02T04:11:21.314Z,116.23
2018-12-02T04:13:50.676Z,92.53
2018-12-02T04:16:20.090Z,89.67
2018-12-02T04:18:49.683Z,85.43
2018-12-02T04:21:19.160Z,93.77
2018-12-02T04:23:48.713Z,99.67
2018-12-02T04:26:18.457Z,106.77
2018-12-02T04:28:48.008Z,104.13
2018-12-02T04:31:17.439Z,101.00
2018-12-02T04:33:47.062Z,95.70
2018-12-02T04:36:16.725Z,96.00
2018-12-02T04:38:46.593Z,94.40
2018-12-02T04:41:16.182Z,97.57
2018-12-02T04:43:45.609Z,87.67
2018-12-02T04:46:15.360Z,89.90
2018-12-02T04:48:44.775Z,86.90
2018-12-02T04:51:14.153Z,85.03
2018-12-02T04:53:43.644Z,119.20
2018-12-02T04:56:13.255Z,99.93
2018-12-02T04:58:42.989Z,103.10
2018-12-02T05:01:12.777Z,115.87
2018-12-02T05:03:42.352Z,192.63
2018-12-02T05:06:11.948Z,100.33
2018-12-02T05:08:41.987Z,97.73
2018-12-02T05:11:11.524Z,104.13
2018-12-02T05:13:40.890Z,94.23
2018-12-02T05:16:10.444Z,94.63
2018-12-02T05:18:39.740Z,97.83
2018-12-02T05:21:09.417Z,101.87
2018-12-02T05:23:39.310Z,94.83
2018-12-02T05:26:08.708Z,89.20
2018-12-02T05:28:38.010Z,85.20
2018-12-02T05:31:07.619Z,89.23
2018-12-02T05:33:36.852Z,91.93
2018-12-02T05:36:06.785Z,89.87
2018-12-02T05:38:36.415Z,93.00
2018-12-02T05:41:06.239Z,94.97
2018-12-02T05:43:36.033Z,98.80
2018-12-02T05:46:07.565Z,88.43
2018-12-02T05:48:37.026Z,94.13
2018-12-02T05:51:06.898Z,90.17
2018-12-02T05:53:36.568Z,92.70
2018-12-02T05:56:06.409Z,82.53
2018-12-02T05:58:35.668Z,93.67
2018-12-02T06:01:05.457Z,97.77
2018-12-02T06:03:34.983Z,89.03
2018-12-02T06:06:04.325Z,88.87
2018-12-02T06:08:33.909Z,90.33
2018-12-02T06:11:03.404Z,107.70
2018-12-02T06:13:32.741Z,104.73
2018-12-02T06:16:01.976Z,111.40
2018-12-02T06:18:31.663Z,102.57
2018-12-02T06:21:01.169Z,100.67
2018-12-02T06:23:30.805Z,94.17
2018-12-02T06:26:00.514Z,98.40
2018-12-02T06:28:30.086Z,94.90
2018-12-02T06:30:59.471Z,97.07
2018-12-02T06:33:28.733Z,94.93
2018-12-02T06:35:58.264Z,93.83
2018-12-02T06:38:27.856Z,93.50
2018-12-02T06:40:57.200Z,97.83
2018-12-02T06:43:26.476Z,99.93
2018-12-02T06:45:55.751Z,98.30
2018-12-02T06:48:25.684Z,97.13
2018-12-02T06:50:55.207Z,97.43
2018-12-02T06:53:24.877Z,95.57
2018-12-02T06:56:03.208Z,105.83
2018-12-02T06:58:45.300Z,97.60
2018-12-02T07:02:24.862Z,100.77
2018-12-02T07:04:54.492Z,116.27
2018-12-02T07:07:23.918Z,185.00
2018-12-02T07:09:53.380Z,206.60
2018-12-02T07:12:23.207Z,186.30
2018-12-02T07:14:52.567Z,152.20
2018-12-02T07:17:24.377Z,150.03
2018-12-02T07:19:58.441Z,150.83
2018-12-02T07:25:18.279Z,149.03
2018-12-02T07:27:47.816Z,155.03
2018-12-02T07:30:17.320Z,163.13
2018-12-02T07:32:47.149Z,158.87
2018-12-02T07:35:35.587Z,156.27
2018-12-02T07:38:31.008Z,154.03
2018-12-02T07:41:18.152Z,148.03
2018-12-02T07:43:47.456Z,163.33
2018-12-02T07:46:16.960Z,175.87
2018-12-02T07:48:46.537Z,174.17
2018-12-02T07:51:16.420Z,170.80
2018-12-02T07:53:46.080Z,169.73
2018-12-02T07:56:15.624Z,160.93
2018-12-02T07:58:46.269Z,153.43
2018-12-02T08:01:16.084Z,150.83
2018-12-02T08:03:45.729Z,151.23
2018-12-02T08:06:15.196Z,151.10
2018-12-02T08:08:44.704Z,142.83
2018-12-02T08:11:14.327Z,142.63
2018-12-02T08:13:43.558Z,134.17
2018-12-02T08:16:13.043Z,133.33
2018-12-02T08:18:42.801Z,130.67
2018-12-02T08:21:12.544Z,121.97
2018-12-02T08:23:42.098Z,123.50
2018-12-02T08:26:11.587Z,120.00
2018-12-02T08:28:41.303Z,121.30
2018-12-02T08:31:10.731Z,122.73
2018-12-02T08:33:40.236Z,119.20
2018-12-02T08:36:09.896Z,118.70
2018-12-02T08:38:39.322Z,121.77
2018-12-02T08:41:08.749Z,117.93
2018-12-02T08:43:38.149Z,118.67
2018-12-02T08:46:07.954Z,115.33
2018-12-02T08:48:37.749Z,120.80
2018-12-02T08:51:07.557Z,113.13
2018-12-02T08:53:37.231Z,111.67
2018-12-02T08:56:06.993Z,113.20
2018-12-02T08:58:36.566Z,118.33
2018-12-02T09:01:05.980Z,119.37
2018-12-02T09:03:35.533Z,113.20
2018-12-02T09:06:05.318Z,108.97
2018-12-02T09:08:34.696Z,101.03
2018-12-02T09:11:04.110Z,101.90
2018-12-02T09:13:33.498Z,102.53
2018-12-02T09:16:03.060Z,102.73
2018-12-02T09:18:32.644Z,102.20
2018-12-02T09:21:02.249Z,106.47
2018-12-02T09:23:31.760Z,103.63
2018-12-02T09:26:01.456Z,107.57
2018-12-02T09:28:31.072Z,107.57
2018-12-02T09:31:00.816Z,102.70
2018-12-02T09:33:30.124Z,110.50
2018-12-02T09:35:59.611Z,102.50
2018-12-02T09:38:28.983Z,104.80
2018-12-02T09:40:58.273Z,94.53
2018-12-02T09:43:27.637Z,104.43
2018-12-02T09:45:57.308Z,99.30
2018-12-02T09:48:27.117Z,101.70
2018-12-02T09:50:56.717Z,93.80
2018-12-02T09:53:26.400Z,89.23
2018-12-02T09:55:56.415Z,95.07
2018-12-02T09:58:27.936Z,99.83
2018-12-02T10:01:00.889Z,100.97
2018-12-02T10:03:30.450Z,100.23
2018-12-02T10:06:00.037Z,96.73
2018-12-02T10:08:29.304Z,103.53
2018-12-02T10:10:59.130Z,93.67
2018-12-02T10:13:28.924Z,97.33
2018-12-02T10:15:58.642Z,92.43
2018-12-02T10:18:28.216Z,98.80
2018-12-02T10:20:57.872Z,99.67
2018-12-02T10:23:27.387Z,105.13
2018-12-02T10:25:57.036Z,102.90
2018-12-02T10:28:26.491Z,96.73
2018-12-02T10:30:56.151Z,101.80
2018-12-02T10:33:25.805Z,99.37
2018-12-02T10:35:55.168Z,99.13
2018-12-02T10:38:24.577Z,99.87
2018-12-02T10:40:54.086Z,102.00
2018-12-02T10:43:23.690Z,107.13
2018-12-02T10:45:53.329Z,110.97
2018-12-02T10:48:22.956Z,112.03
2018-12-02T10:50:52.671Z,116.80
2018-12-02T10:53:23.013Z,122.70
2018-12-02T10:55:54.101Z,126.10
2018-12-02T10:58:25.652Z,133.47
2018-12-02T11:01:01.608Z,135.23
2018-12-02T11:03:31.824Z,138.43
2018-12-02T11:06:01.471Z,139.27
2018-12-02T11:08:30.816Z,136.23
2018-12-02T11:11:00.277Z,140.70
2018-12-02T11:13:30.198Z,149.10
2018-12-02T11:15:59.911Z,141.03
2018-12-02T11:18:29.475Z,145.47
2018-12-02T11:20:58.852Z,136.97
2018-12-02T11:23:28.312Z,140.03
2018-12-02T11:25:57.887Z,137.57
2018-12-02T11:28:27.505Z,143.23
2018-12-02T11:30:57.148Z,138.17
2018-12-02T11:33:26.649Z,145.43
2018-12-02T11:35:56.152Z,144.47
2018-12-02T11:38:25.700Z,149.03
2018-12-02T11:40:55.176Z,120.00
2018-12-02T11:43:24.770Z,127.10
2018-12-02T11:45:54.396Z,128.37
2018-12-02T11:48:23.902Z,123.47
2018-12-02T11:50:53.736Z,125.43
2018-12-02T11:53:23.107Z,129.93
2018-12-02T11:55:52.499Z,139.30
2018-12-02T11:58:22.074Z,141.00
2018-12-02T12:00:51.651Z,145.57
2018-12-02T12:03:20.942Z,149.73
2018-12-02T12:05:50.532Z,151.53
2018-12-02T12:08:19.821Z,149.57
2018-12-02T12:10:49.127Z,151.90
2018-12-02T12:13:18.757Z,156.70
2018-12-02T12:15:48.700Z,146.43
2018-12-02T12:18:18.287Z,151.73
2018-12-02T12:20:47.765Z,151.97
2018-12-02T12:23:20.595Z,152.83
2018-12-02T12:25:50.112Z,150.33
2018-12-02T12:28:19.872Z,152.73
2018-12-02T12:30:49.272Z,158.67
2018-12-02T12:33:18.609Z,160.77
2018-12-02T12:35:49.726Z,154.27
2018-12-02T12:38:19.091Z,160.07
2018-12-02T12:40:50.129Z,160.37
2018-12-02T12:43:25.216Z,162.43
2018-12-02T12:45:55.129Z,153.30
2018-12-02T12:48:24.780Z,152.80
2018-12-02T12:50:54.512Z,152.13
2018-12-02T12:53:24.419Z,157.13
2018-12-02T12:55:54.231Z,153.13
2018-12-02T12:58:24.051Z,151.30
2018-12-02T13:00:54.047Z,154.33
2018-12-02T13:03:23.845Z,150.37
2018-12-02T13:05:53.488Z,148.50
2018-12-02T13:08:23.225Z,141.90
2018-12-02T13:10:52.999Z,147.20
2018-12-02T13:13:22.894Z,145.10
2018-12-02T13:15:53.093Z,147.47
2018-12-02T13:18:22.949Z,147.53
2018-12-02T13:20:54.441Z,144.37
2018-12-02T13:23:24.429Z,150.90
2018-12-02T13:25:54.448Z,146.63
2018-12-02T13:28:24.530Z,149.13
2018-12-02T13:33:49.012Z,139.30
2018-12-02T13:36:19.561Z,145.47
2018-12-02T13:38:50.235Z,152.80
2018-12-02T13:41:20.115Z,166.87
2018-12-02T13:43:49.764Z,165.83
2018-12-02T13:46:19.771Z,163.37
2018-12-02T13:48:49.687Z,150.30
2018-12-02T13:51:19.425Z,152.27
2018-12-02T13:53:54.092Z,166.27
2018-12-02T13:56:23.797Z,161.40
2018-12-02T13:58:53.324Z,175.47
2018-12-02T14:01:23.005Z,174.73
2018-12-02T14:03:52.685Z,179.47
2018-12-02T14:06:22.475Z,199.93
2018-12-02T14:08:51.854Z,203.83
2018-12-02T14:11:21.781Z,207.97
2018-12-02T14:13:51.705Z,195.67
2018-12-02T14:17:27.002Z,190.90
2018-12-02T14:19:56.585Z,190.53
2018-12-02T14:22:26.227Z,208.97
2018-12-02T14:24:55.797Z,221.23
2018-12-02T14:27:25.342Z,216.07
2018-12-02T14:29:56.362Z,217.73
2018-12-02T14:32:26.625Z,202.63
2018-12-02T14:34:56.021Z,206.30
2018-12-02T14:37:25.349Z,201.80
2018-12-02T14:39:55.223Z,201.37
2018-12-02T14:42:24.587Z,195.70
2018-12-02T14:44:54.180Z,202.47
2018-12-02T14:47:23.653Z,208.70
2018-12-02T14:49:53.312Z,209.70
2018-12-02T14:52:22.953Z,208.20
2018-12-02T14:54:52.613Z,218.97
2018-12-02T14:57:22.132Z,223.60
2018-12-02T14:59:51.756Z,227.83
2018-12-02T15:02:21.265Z,226.90
2018-12-02T15:04:50.839Z,230.17
2018-12-02T15:07:20.374Z,233.43
2018-12-02T15:09:49.920Z,225.50
2018-12-02T15:12:19.324Z,219.37
2018-12-02T15:14:48.924Z,211.73
2018-12-02T15:17:18.394Z,234.57
2018-12-02T15:19:47.875Z,246.90
2018-12-02T15:22:17.341Z,236.70
2018-12-02T15:24:46.736Z,249.90
2018-12-02T15:27:16.569Z,248.00
2018-12-02T15:29:46.128Z,239.20
2018-12-02T15:32:15.777Z,259.43
2018-12-02T15:34:45.340Z,260.60
2018-12-02T15:37:14.773Z,236.87
2018-12-02T15:39:44.214Z,234.57
2018-12-02T15:42:13.789Z,226.70
2018-12-02T15:44:43.365Z,229.27
2018-12-02T15:47:12.816Z,215.07
2018-12-02T15:49:42.274Z,227.50
2018-12-02T15:52:11.897Z,204.63
2018-12-02T15:54:41.713Z,178.10
2018-12-02T15:57:11.060Z,182.83
2018-12-02T15:59:40.787Z,186.67
2018-12-02T16:02:10.332Z,196.13
2018-12-02T16:04:39.777Z,220.97
2018-12-02T16:07:09.323Z,231.23
2018-12-02T16:09:38.792Z,210.73
2018-12-02T16:12:08.381Z,207.47
2018-12-02T16:14:37.992Z,207.43
2018-12-02T16:17:07.366Z,206.23
2018-12-02T16:19:36.803Z,229.90
2018-12-02T16:22:06.363Z,216.10
2018-12-02T16:24:35.916Z,219.60
2018-12-02T16:27:05.518Z,206.17
2018-12-02T16:29:34.891Z,207.17
2018-12-02T16:32:04.673Z,183.53
2018-12-02T16:34:33.990Z,186.77
2018-12-02T16:37:03.652Z,185.03
2018-12-02T16:39:32.971Z,188.30
2018-12-02T16:42:02.552Z,191.97
2018-12-02T16:44:31.920Z,171.80
2018-12-02T16:47:01.233Z,177.93
2018-12-02T16:49:30.885Z,175.03
2018-12-02T16:52:00.616Z,205.77
2018-12-02T16:54:30.336Z,196.33
2018-12-02T16:57:00.675Z,212.17
2018-12-02T16:59:32.286Z,209.27
2018-12-02T17:02:05.232Z,315.70
2018-12-02T17:04:32.819Z,298.90
2018-12-02T17:07:02.049Z,200.90
2018-12-02T17:09:31.463Z,194.10
2018-12-02T17:12:01.888Z,208.60
2018-12-02T17:14:31.348Z,199.77
2018-12-02T17:17:00.864Z,185.47
2018-12-02T17:19:30.545Z,192.50
2018-12-02T17:22:00.241Z,182.30
2018-12-02T17:24:29.906Z,167.23
2018-12-02T17:26:59.459Z,169.23
2018-12-02T17:29:28.900Z,173.97
2018-12-02T17:32:01.882Z,172.63
2018-12-02T17:34:31.165Z,163.97
2018-12-02T17:37:00.709Z,165.07
2018-12-02T17:39:31.937Z,174.23
2018-12-02T17:42:06.900Z,175.93
2018-12-02T17:44:36.595Z,182.40
2018-12-02T17:47:06.603Z,169.23
2018-12-02T17:49:36.099Z,171.97
2018-12-02T17:52:06.809Z,171.87
2018-12-02T17:54:36.243Z,172.97
2018-12-02T17:57:05.956Z,171.67
2018-12-02T17:59:35.483Z,174.93
2018-12-02T18:02:04.860Z,173.43
2018-12-02T18:04:34.577Z,166.27
2018-12-02T18:07:04.094Z,160.17
2018-12-02T18:09:33.450Z,145.20
2018-12-02T18:12:02.805Z,138.50
2018-12-02T18:14:32.649Z,135.77
2018-12-02T18:17:02.308Z,132.73
2018-12-02T18:19:31.782Z,136.43
2018-12-02T18:22:01.363Z,141.67
2018-12-02T18:24:31.003Z,133.30
2018-12-02T18:27:00.604Z,135.03
2018-12-02T18:29:30.115Z,140.63
2018-12-02T18:31:59.558Z,150.33
2018-12-02T18:34:30.623Z,152.53
2018-12-02T18:37:00.496Z,153.63
2018-12-02T18:39:30.083Z,161.80
2018-12-02T18:41:59.378Z,159.70
2018-12-02T18:44:29.191Z,147.00
2018-12-02T18:46:58.863Z,147.20
2018-12-02T18:49:28.647Z,143.60
2018-12-02T18:51:58.238Z,150.77
2018-12-02T18:54:28.551Z,154.83
2018-12-02T18:56:57.385Z,153.57
2018-12-02T18:59:26.886Z,151.83
2018-12-02T19:01:56.347Z,167.97
2018-12-02T19:04:25.938Z,166.40
2018-12-02T19:06:58.524Z,172.40
2018-12-02T19:09:25.076Z,178.73
2018-12-02T19:11:54.479Z,169.20
2018-12-02T19:14:24.224Z,165.50
2018-12-02T19:16:53.948Z,164.23
2018-12-02T19:19:23.717Z,163.17
2018-12-02T19:21:53.352Z,161.93
2018-12-02T19:24:23.093Z,179.23
2018-12-02T19:26:52.430Z,192.03
2018-12-02T19:29:21.941Z,186.03
2018-12-02T19:31:51.577Z,180.00
2018-12-02T19:34:20.989Z,173.20
2018-12-02T19:36:52.901Z,166.00
2018-12-02T19:39:22.300Z,166.70
2018-12-02T19:41:51.652Z,157.43
2018-12-02T19:44:21.314Z,124.13
2018-12-02T19:46:50.633Z,113.50
2018-12-02T19:49:20.186Z,108.57
2018-12-02T19:51:49.748Z,123.23
2018-12-02T19:54:19.714Z,152.30
2018-12-02T19:56:49.453Z,152.80
2018-12-02T19:59:19.136Z,143.43
2018-12-02T20:01:49.030Z,150.87
2018-12-02T20:04:18.487Z,144.93
2018-12-02T20:06:48.256Z,161.23
2018-12-02T20:09:17.566Z,144.03
2018-12-02T20:11:46.926Z,133.70
2018-12-02T20:14:16.563Z,133.47
2018-12-02T20:16:46.039Z,139.57
2018-12-02T20:19:20.737Z,135.63
2018-12-02T20:21:50.477Z,163.67
2018-12-02T20:24:25.218Z,146.23
2018-12-02T20:26:54.509Z,178.23
2018-12-02T20:29:24.214Z,154.17
2018-12-02T20:31:54.238Z,136.27
2018-12-02T20:34:23.839Z,116.57
2018-12-02T20:36:53.257Z,132.20
2018-12-02T20:39:22.724Z,146.30
2018-12-02T20:41:52.021Z,126.33
2018-12-02T20:44:21.704Z,118.40
2018-12-02T20:46:51.525Z,111.40
2018-12-02T20:49:20.925Z,99.77
2018-12-02T20:51:50.438Z,132.87
2018-12-02T20:54:20.094Z,106.93
2018-12-02T20:56:49.821Z,104.23
2018-12-02T20:59:19.469Z,100.83
2018-12-02T21:01:48.967Z,110.73
2018-12-02T21:04:18.737Z,105.33
2018-12-02T21:06:48.126Z,99.90
2018-12-02T21:09:17.471Z,103.90
2018-12-02T21:11:46.839Z,114.03
2018-12-02T21:14:16.636Z,114.07
2018-12-02T21:16:45.943Z,104.00
2018-12-02T21:19:15.567Z,105.13
2018-12-02T21:21:45.322Z,105.33
2018-12-02T21:24:14.882Z,104.90
2018-12-02T21:26:44.689Z,108.30
2018-12-02T21:29:14.124Z,110.97
2018-12-02T21:31:43.444Z,101.70
2018-12-02T21:34:13.422Z,101.47
2018-12-02T21:36:42.823Z,94.90
2018-12-02T21:39:12.226Z,91.43
2018-12-02T21:41:41.564Z,94.20
2018-12-02T21:44:11.297Z,92.23
2018-12-02T21:46:40.687Z,91.23
2018-12-02T21:49:10.248Z,97.37
2018-12-02T21:51:40.088Z,94.87
2018-12-02T21:54:10.084Z,99.57
2018-12-02T21:56:39.944Z,102.20
2018-12-02T21:59:09.473Z,94.47
2018-12-02T22:01:39.005Z,104.27
2018-12-02T22:04:08.657Z,109.20
2018-12-02T22:06:38.018Z,102.03
2018-12-02T22:09:08.600Z,99.97
2018-12-02T22:11:38.501Z,95.43
2018-12-02T22:14:07.965Z,91.83
2018-12-02T22:16:37.245Z,86.53
2018-12-02T22:19:06.935Z,88.83
2018-12-02T22:21:36.628Z,86.57
2018-12-02T22:24:06.378Z,80.07
2018-12-02T22:26:35.737Z,79.97
2018-12-02T22:29:05.422Z,88.87
2018-12-02T22:31:34.908Z,88.07
2018-12-02T22:34:04.583Z,81.40
2018-12-02T22:36:34.069Z,86.80
2018-12-02T22:39:03.464Z,87.70
2018-12-02T22:41:33.096Z,87.03
2018-12-02T22:44:02.506Z,91.37
2018-12-02T22:46:32.137Z,92.70
2018-12-02T22:49:01.662Z,92.13
2018-12-02T22:51:31.133Z,89.60
2018-12-02T22:54:00.524Z,86.03
2018-12-02T22:56:30.252Z,87.83
2018-12-02T22:58:59.708Z,89.23
2018-12-02T23:01:34.383Z,86.23
2018-12-02T23:04:03.965Z,85.40
2018-12-02T23:06:33.358Z,85.70
2018-12-02T23:09:02.713Z,83.50
2018-12-02T23:11:32.249Z,83.47
2018-12-02T23:14:01.861Z,82.87
2018-12-02T23:16:31.644Z,81.47
2018-12-02T23:19:01.286Z,81.63
2018-12-02T23:21:30.593Z,78.90
2018-12-02T23:24:00.162Z,78.63
2018-12-02T23:26:29.998Z,83.23
2018-12-02T23:28:59.664Z,86.87
2018-12-02T23:31:29.338Z,83.70
2018-12-02T23:33:59.693Z,66.10
2018-12-02T23:36:28.205Z,67.50
2018-12-02T23:38:57.620Z,68.10
2018-12-02T23:41:27.324Z,64.33
2018-12-02T23:43:56.805Z,65.63
2018-12-02T23:46:26.416Z,65.03
2018-12-02T23:48:56.000Z,61.37
2018-12-02T23:51:25.513Z,61.67
2018-12-02T23:53:54.883Z,58.53
2018-12-02T23:56:24.567Z,55.10
2018-12-02T23:58:54.364Z,55.93
